Airfield :
LOGIN :

Register | Disclaimer

   EN    FR    IT 

 










Legend :    VFR   Marginal VFR   IFR   Intensive IFR   Very Intensive IFR
Visi :
Ceiling :
>= 8 km
>= 3000ft
5 to 8 km
1000 to 3000 ft
1500m to 5 km
500 to 1000 ft
800 to 1500m
200 to 500 ft
< 800m
< 200 ft
Symbols :   Thunderstorms  Fog  Heavy snow  Heavy precipitations  Wind > 20 kt
SIGMETs :     Misc.  Thunderstorms  Icing  Turbulence  Mountain Waves  Volcanic Ashes






- Airport Elevation : 778 ft
- IATA code : BRQ


LKTB - Brno-Turany

CURRENT METAR :
  • 082300Z 11014KT 9999 SCT017 00/M03 Q1004 TEMPO BKN016

EXPIRED METARs :
  • 082230Z 11014KT 9999 SCT017 00/M04 Q1004 NOSIG
  • 082200Z 11013KT 9999 FEW038 M00/M04 Q1004 NOSIG
  • 082130Z 12015KT 9999 FEW038 00/M04 Q1004 NOSIG
  • 082100Z 11017KT 9999 SCT037 01/M04 Q1004 NOSIG
  • 082030Z 11017KT 9999 BKN037 01/M04 Q1004 NOSIG

TAF TAF LKTB
Valid from the 08 at 18:00 until the 10 at 00:00 UTC


081700Z 0818/1000 10010KT CAVOK
TEMPO 0818/0900 15012G24KT
BECMG 0900/0903 6000 -SN OVC012
TEMPO 0903/1000 2000 SN BR BKN005
PROB30
TEMPO 0903/0912 0700 +SN BKN002
BECMG 0912/0914 VRB02KT



MET'MAP, your aeronautical weather chart ! - Copyright ORBIFLY December 2007 - Disclaimer

ORBIFLY MET'MAP TEAM :

Programming & Development : Alexandra Zaïnal
Concept & original design : Baudouin d'Aumeries
Assistance for programming : Marc-Olivier Méhu
Technical & hardware support : Manuel Goepfert

Contact : metmap@orbifly.com




SOURCES & CREDITS :

   NOAA